sensor_id;sensor_type;location;lat;lon;timestamp;pressure;altitude;pressure_sealevel;temperature;humidity
20160;BME280;50187;50.492;12.134;2023-10-08T00:02:10;97946.47;;;20.02;49.85
20160;BME280;50187;50.492;12.134;2023-10-08T00:04:55;97953.56;;;20.03;49.80
20160;BME280;50187;50.492;12.134;2023-10-08T00:07:40;97968.22;;;20.00;49.70
20160;BME280;50187;50.492;12.134;2023-10-08T00:10:27;97959.97;;;20.02;49.89
20160;BME280;50187;50.492;12.134;2023-10-08T00:13:14;97947.75;;;19.98;50.07
20160;BME280;50187;50.492;12.134;2023-10-08T00:16:02;97959.59;;;19.97;50.36
20160;BME280;50187;50.492;12.134;2023-10-08T00:18:54;97944.91;;;19.99;50.39
20160;BME280;50187;50.492;12.134;2023-10-08T00:21:44;97952.34;;;19.97;50.06
20160;BME280;50187;50.492;12.134;2023-10-08T00:24:30;97964.69;;;20.00;50.16
20160;BME280;50187;50.492;12.134;2023-10-08T00:27:18;97953.88;;;20.00;50.08
20160;BME280;50187;50.492;12.134;2023-10-08T00:30:04;97954.72;;;20.00;50.03
20160;BME280;50187;50.492;12.134;2023-10-08T00:32:58;97952.84;;;20.01;50.11
20160;BME280;50187;50.492;12.134;2023-10-08T00:35:44;97962.97;;;19.99;49.93
20160;BME280;50187;50.492;12.134;2023-10-08T00:38:29;97954.88;;;19.99;49.87
20160;BME280;50187;50.492;12.134;2023-10-08T00:41:17;97961.28;;;19.98;50.05
20160;BME280;50187;50.492;12.134;2023-10-08T00:44:08;97953.88;;;20.00;50.23
20160;BME280;50187;50.492;12.134;2023-10-08T00:46:53;97952.19;;;19.99;49.93
20160;BME280;50187;50.492;12.134;2023-10-08T00:49:41;97950.47;;;19.98;50.08
20160;BME280;50187;50.492;12.134;2023-10-08T00:52:27;97944.06;;;19.99;49.93
20160;BME280;50187;50.492;12.134;2023-10-08T00:55:15;97954.88;;;19.99;50.09
20160;BME280;50187;50.492;12.134;2023-10-08T00:58:07;97952.63;;;19.94;49.78
20160;BME280;50187;50.492;12.134;2023-10-08T01:00:54;97955.03;;;19.97;49.93
20160;BME280;50187;50.492;12.134;2023-10-08T01:03:45;97967.13;;;19.93;50.12
20160;BME280;50187;50.492;12.134;2023-10-08T01:06:31;97956.19;;;19.95;50.30
20160;BME280;50187;50.492;12.134;2023-10-08T01:09:16;97949.22;;;19.92;49.92
20160;BME280;50187;50.492;12.134;2023-10-08T01:12:14;97950.63;;;19.96;50.13
20160;BME280;50187;50.492;12.134;2023-10-08T01:15:01;97964.13;;;19.96;50.55
20160;BME280;50187;50.492;12.134;2023-10-08T01:18:04;97980.31;;;19.96;50.36
20160;BME280;50187;50.492;12.134;2023-10-08T01:20:51;97957.00;;;19.95;49.95
20160;BME280;50187;50.492;12.134;2023-10-08T01:23:39;97954.47;;;19.94;50.18
20160;BME280;50187;50.492;12.134;2023-10-08T01:26:25;97959.88;;;19.94;50.07
20160;BME280;50187;50.492;12.134;2023-10-08T01:29:11;97945.38;;;19.95;50.24
20160;BME280;50187;50.492;12.134;2023-10-08T01:32:04;97953.47;;;19.95;49.91
20160;BME280;50187;50.492;12.134;2023-10-08T01:34:55;97943.00;;;19.92;50.13
20160;BME280;50187;50.492;12.134;2023-10-08T01:37:55;97933.75;;;19.94;50.02
20160;BME280;50187;50.492;12.134;2023-10-08T01:40:42;97954.31;;;19.95;49.72
20160;BME280;50187;50.492;12.134;2023-10-08T01:43:27;97956.19;;;19.95;50.16
20160;BME280;50187;50.492;12.134;2023-10-08T01:46:13;97973.22;;;19.95;49.78
20160;BME280;50187;50.492;12.134;2023-10-08T01:49:00;97977.78;;;19.95;49.93
20160;BME280;50187;50.492;12.134;2023-10-08T01:51:53;97961.72;;;19.93;49.99
20160;BME280;50187;50.492;12.134;2023-10-08T01:54:39;97975.91;;;19.95;49.86
20160;BME280;50187;50.492;12.134;2023-10-08T01:57:24;97975.06;;;19.95;50.01
20160;BME280;50187;50.492;12.134;2023-10-08T02:00:10;97970.97;;;19.90;49.93
20160;BME280;50187;50.492;12.134;2023-10-08T02:02:55;97961.72;;;19.93;49.67
20160;BME280;50187;50.492;12.134;2023-10-08T02:05:44;97963.44;;;19.94;49.75
20160;BME280;50187;50.492;12.134;2023-10-08T02:08:30;97959.88;;;19.94;49.97
20160;BME280;50187;50.492;12.134;2023-10-08T02:11:17;97967.97;;;19.94;49.73
20160;BME280;50187;50.492;12.134;2023-10-08T02:14:03;97960.34;;;19.89;49.75
20160;BME280;50187;50.492;12.134;2023-10-08T02:16:50;97969.84;;;19.93;49.97
20160;BME280;50187;50.492;12.134;2023-10-08T02:19:41;97973.53;;;19.92;49.97
20160;BME280;50187;50.492;12.134;2023-10-08T02:22:26;97970.00;;;19.92;49.90
20160;BME280;50187;50.492;12.134;2023-10-08T02:25:12;97966.28;;;19.93;50.46
20160;BME280;50187;50.492;12.134;2023-10-08T02:27:58;97961.88;;;19.92;49.89
20160;BME280;50187;50.492;12.134;2023-10-08T02:30:43;97968.44;;;19.89;50.20
20160;BME280;50187;50.492;12.134;2023-10-08T02:33:28;97969.28;;;19.89;49.87
20160;BME280;50187;50.492;12.134;2023-10-08T02:36:15;97969.00;;;19.93;49.95
20160;BME280;50187;50.492;12.134;2023-10-08T02:39:00;97977.09;;;19.93;50.13
20160;BME280;50187;50.492;12.134;2023-10-08T02:41:52;97981.63;;;19.92;49.69
20160;BME280;50187;50.492;12.134;2023-10-08T02:44:37;98001.50;;;19.91;49.99
20160;BME280;50187;50.492;12.134;2023-10-08T02:47:29;97989.03;;;19.90;50.17
20160;BME280;50187;50.492;12.134;2023-10-08T02:50:15;97996.44;;;19.88;50.13
20160;BME280;50187;50.492;12.134;2023-10-08T02:53:02;97998.81;;;19.91;50.10
20160;BME280;50187;50.492;12.134;2023-10-08T02:55:55;97986.34;;;19.90;49.88
20160;BME280;50187;50.492;12.134;2023-10-08T02:58:40;98006.06;;;19.90;49.96
20160;BME280;50187;50.492;12.134;2023-10-08T03:01:28;97999.84;;;19.90;50.13
20160;BME280;50187;50.492;12.134;2023-10-08T03:04:19;97996.19;;;19.81;50.23
20160;BME280;50187;50.492;12.134;2023-10-08T03:07:04;98006.22;;;19.89;50.12
20160;BME280;50187;50.492;12.134;2023-10-08T03:09:56;97998.28;;;19.87;49.82
20160;BME280;50187;50.492;12.134;2023-10-08T03:12:51;98001.66;;;19.89;49.86
20160;BME280;50187;50.492;12.134;2023-10-08T03:15:36;98003.38;;;19.90;50.08
20160;BME280;50187;50.492;12.134;2023-10-08T03:18:29;97997.97;;;19.90;49.91
20160;BME280;50187;50.492;12.134;2023-10-08T03:21:30;98000.84;;;19.89;50.01
20160;BME280;50187;50.492;12.134;2023-10-08T03:24:24;98003.53;;;19.89;50.01
20160;BME280;50187;50.492;12.134;2023-10-08T03:27:19;97992.31;;;19.84;50.11
20160;BME280;50187;50.492;12.134;2023-10-08T03:30:11;98006.53;;;19.86;49.89
20160;BME280;50187;50.492;12.134;2023-10-08T03:33:01;98002.97;;;19.85;49.94
20160;BME280;50187;50.492;12.134;2023-10-08T03:35:50;98004.53;;;19.88;50.08
20160;BME280;50187;50.492;12.134;2023-10-08T03:38:40;98000.97;;;19.87;49.96
20160;BME280;50187;50.492;12.134;2023-10-08T03:41:36;97994.88;;;19.85;49.91
20160;BME280;50187;50.492;12.134;2023-10-08T03:44:25;97998.28;;;19.87;50.07
20160;BME280;50187;50.492;12.134;2023-10-08T03:47:10;97998.28;;;19.87;49.77
20160;BME280;50187;50.492;12.134;2023-10-08T03:49:56;97986.09;;;19.83;49.87
20160;BME280;50187;50.492;12.134;2023-10-08T03:52:41;98001.13;;;19.86;50.23
20160;BME280;50187;50.492;12.134;2023-10-08T03:55:28;98024.28;;;19.88;49.80
20160;BME280;50187;50.492;12.134;2023-10-08T03:58:20;98021.88;;;19.85;49.88
20160;BME280;50187;50.492;12.134;2023-10-08T04:01:14;98022.72;;;19.86;49.80
20160;BME280;50187;50.492;12.134;2023-10-08T04:04:04;98026.28;;;19.86;49.95
20160;BME280;50187;50.492;12.134;2023-10-08T04:06:50;98027.97;;;19.87;50.06
20160;BME280;50187;50.492;12.134;2023-10-08T04:09:36;98024.72;;;19.84;49.79
20160;BME280;50187;50.492;12.134;2023-10-08T04:12:24;98020.03;;;19.86;49.82
20160;BME280;50187;50.492;12.134;2023-10-08T04:15:13;98022.16;;;19.82;49.95
20160;BME280;50187;50.492;12.134;2023-10-08T04:18:02;98015.47;;;19.86;50.14
20160;BME280;50187;50.492;12.134;2023-10-08T04:20:48;98017.34;;;19.86;49.83
20160;BME280;50187;50.492;12.134;2023-10-08T04:23:58;98011.06;;;19.85;49.94
20160;BME280;50187;50.492;12.134;2023-10-08T04:26:44;98011.06;;;19.85;50.03
20160;BME280;50187;50.492;12.134;2023-10-08T04:29:29;97994.03;;;19.85;50.19
20160;BME280;50187;50.492;12.134;2023-10-08T04:32:17;97974.44;;;19.83;50.25
20160;BME280;50187;50.492;12.134;2023-10-08T04:35:10;97969.88;;;19.83;50.24
20160;BME280;50187;50.492;12.134;2023-10-08T04:38:00;97982.41;;;19.84;50.06
20160;BME280;50187;50.492;12.134;2023-10-08T04:40:45;97966.50;;;19.81;50.16
20160;BME280;50187;50.492;12.134;2023-10-08T04:43:34;97981.69;;;19.82;50.27
20160;BME280;50187;50.492;12.134;2023-10-08T04:46:23;97978.97;;;19.82;50.28
20160;BME280;50187;50.492;12.134;2023-10-08T04:49:32;97991.63;;;19.82;50.25
20160;BME280;50187;50.492;12.134;2023-10-08T04:52:18;97981.69;;;19.82;50.18
20160;BME280;50187;50.492;12.134;2023-10-08T04:55:05;97967.34;;;19.82;50.10
20160;BME280;50187;50.492;12.134;2023-10-08T04:57:58;97990.81;;;19.81;49.99
20160;BME280;50187;50.492;12.134;2023-10-08T05:00:45;97986.38;;;19.80;50.28
20160;BME280;50187;50.492;12.134;2023-10-08T05:03:39;97959.41;;;19.80;50.19
20160;BME280;50187;50.492;12.134;2023-10-08T05:06:39;97986.38;;;19.80;50.04
20160;BME280;50187;50.492;12.134;2023-10-08T05:09:35;97984.38;;;19.82;50.12
20160;BME280;50187;50.492;12.134;2023-10-08T05:12:46;97976.44;;;19.81;50.34
20160;BME280;50187;50.492;12.134;2023-10-08T05:15:46;97988.09;;;19.81;50.40
20160;BME280;50187;50.492;12.134;2023-10-08T05:18:49;98005.97;;;19.82;50.62
20160;BME280;50187;50.492;12.134;2023-10-08T05:22:11;98046.47;;;19.82;50.76
20160;BME280;50187;50.492;12.134;2023-10-08T05:25:07;98047.50;;;19.81;50.80
20160;BME280;50187;50.492;12.134;2023-10-08T05:27:53;98045.78;;;19.80;50.70
20160;BME280;50187;50.492;12.134;2023-10-08T05:30:38;98051.19;;;19.80;50.94
20160;BME280;50187;50.492;12.134;2023-10-08T05:33:26;98061.97;;;19.80;51.07
20160;BME280;50187;50.492;12.134;2023-10-08T05:36:29;98080.56;;;19.83;51.04
20160;BME280;50187;50.492;12.134;2023-10-08T05:39:52;98082.59;;;19.81;50.88
20160;BME280;50187;50.492;12.134;2023-10-08T05:42:43;98089.81;;;19.81;50.84
20160;BME280;50187;50.492;12.134;2023-10-08T05:45:31;98107.72;;;19.82;50.73
20160;BME280;50187;50.492;12.134;2023-10-08T05:48:20;98091.66;;;19.80;50.82
20160;BME280;50187;50.492;12.134;2023-10-08T05:51:13;98125.78;;;19.81;50.89
20160;BME280;50187;50.492;12.134;2023-10-08T05:54:08;98119.50;;;19.81;51.63
20160;BME280;50187;50.492;12.134;2023-10-08T05:57:09;98125.78;;;19.81;51.58
20160;BME280;50187;50.492;12.134;2023-10-08T05:59:55;98119.34;;;19.82;51.33
20160;BME280;50187;50.492;12.134;2023-10-08T06:02:42;98126.47;;;19.83;51.08
20160;BME280;50187;50.492;12.134;2023-10-08T06:05:30;98127.03;;;19.77;51.09
20160;BME280;50187;50.492;12.134;2023-10-08T06:08:29;98141.97;;;19.81;51.13
20160;BME280;50187;50.492;12.134;2023-10-08T06:11:37;98153.75;;;19.80;51.33
20160;BME280;50187;50.492;12.134;2023-10-08T06:14:29;98166.13;;;19.83;51.38
20160;BME280;50187;50.492;12.134;2023-10-08T06:17:35;98164.25;;;19.83;50.86
20160;BME280;50187;50.492;12.134;2023-10-08T06:20:42;98182.69;;;19.78;51.06
20160;BME280;50187;50.492;12.134;2023-10-08T06:23:29;98203.75;;;19.84;51.09
20160;BME280;50187;50.492;12.134;2023-10-08T06:26:17;98208.28;;;19.84;50.62
20160;BME280;50187;50.492;12.134;2023-10-08T06:29:06;98224.63;;;19.82;50.86
20160;BME280;50187;50.492;12.134;2023-10-08T06:32:03;98217.25;;;19.84;50.81
20160;BME280;50187;50.492;12.134;2023-10-08T06:34:49;98219.97;;;19.84;50.69
20160;BME280;50187;50.492;12.134;2023-10-08T06:37:35;98221.09;;;19.82;50.81
20160;BME280;50187;50.492;12.134;2023-10-08T06:40:21;98228.06;;;19.84;50.84
20160;BME280;50187;50.492;12.134;2023-10-08T06:43:26;98232.75;;;19.82;50.85
20160;BME280;50187;50.492;12.134;2023-10-08T06:46:12;98235.28;;;19.84;50.66
20160;BME280;50187;50.492;12.134;2023-10-08T06:49:01;98228.22;;;19.83;50.46
20160;BME280;50187;50.492;12.134;2023-10-08T06:51:51;98245.25;;;19.83;50.53
20160;BME280;50187;50.492;12.134;2023-10-08T06:54:36;98244.56;;;19.81;50.36
20160;BME280;50187;50.492;12.134;2023-10-08T06:57:21;98248.09;;;19.82;50.59
20160;BME280;50187;50.492;12.134;2023-10-08T07:00:07;98246.53;;;19.79;50.53
20160;BME280;50187;50.492;12.134;2023-10-08T07:02:57;98241.84;;;19.81;50.49
20160;BME280;50187;50.492;12.134;2023-10-08T07:05:48;98239.38;;;19.78;50.27
20160;BME280;50187;50.492;12.134;2023-10-08T07:08:39;98231.16;;;19.80;50.52
20160;BME280;50187;50.492;12.134;2023-10-08T07:11:27;98230.34;;;19.79;50.49
20160;BME280;50187;50.492;12.134;2023-10-08T07:14:13;98245.66;;;19.79;50.38
20160;BME280;50187;50.492;12.134;2023-10-08T07:17:00;98247.47;;;19.78;50.53
20160;BME280;50187;50.492;12.134;2023-10-08T07:19:47;98258.16;;;19.80;50.35
20160;BME280;50187;50.492;12.134;2023-10-08T07:22:35;98268.13;;;19.79;50.42
20160;BME280;50187;50.492;12.134;2023-10-08T07:25:23;98287.03;;;19.79;50.61
20160;BME280;50187;50.492;12.134;2023-10-08T07:28:09;98297.94;;;19.78;50.35
20160;BME280;50187;50.492;12.134;2023-10-08T07:30:57;98296.06;;;19.78;51.02
20160;BME280;50187;50.492;12.134;2023-10-08T07:33:43;98303.22;;;19.79;51.41
20160;BME280;50187;50.492;12.134;2023-10-08T07:36:29;98301.47;;;19.78;51.51
20160;BME280;50187;50.492;12.134;2023-10-08T07:39:17;98318.28;;;19.82;51.77
20160;BME280;50187;50.492;12.134;2023-10-08T07:42:18;98327.09;;;19.84;51.50
20160;BME280;50187;50.492;12.134;2023-10-08T07:45:04;98331.63;;;19.83;51.53
20160;BME280;50187;50.492;12.134;2023-10-08T07:47:50;98341.47;;;19.84;51.78
20160;BME280;50187;50.492;12.134;2023-10-08T07:50:40;98344.00;;;19.86;51.83
20160;BME280;50187;50.492;12.134;2023-10-08T07:53:26;98349.56;;;19.84;51.77
20160;BME280;50187;50.492;12.134;2023-10-08T07:56:23;98365.75;;;19.84;51.55
20160;BME280;50187;50.492;12.134;2023-10-08T07:59:12;98350.09;;;19.88;51.48
20160;BME280;50187;50.492;12.134;2023-10-08T08:02:00;98350.09;;;19.88;51.50
20160;BME280;50187;50.492;12.134;2023-10-08T08:04:50;98365.47;;;19.87;51.41
20160;BME280;50187;50.492;12.134;2023-10-08T08:07:38;98360.06;;;19.87;51.20
20160;BME280;50187;50.492;12.134;2023-10-08T08:10:25;98371.84;;;19.86;51.19
20160;BME280;50187;50.492;12.134;2023-10-08T08:13:11;98351.69;;;19.90;51.26
20160;BME280;50187;50.492;12.134;2023-10-08T08:15:56;98354.66;;;19.87;51.30
20160;BME280;50187;50.492;12.134;2023-10-08T08:21:29;98370.72;;;19.89;51.26
20160;BME280;50187;50.492;12.134;2023-10-08T08:24:15;98357.78;;;19.83;51.01
20160;BME280;50187;50.492;12.134;2023-10-08T08:27:13;98368.72;;;19.91;50.96
20160;BME280;50187;50.492;12.134;2023-10-08T08:30:16;98378.81;;;19.89;50.90
20160;BME280;50187;50.492;12.134;2023-10-08T08:33:03;98376.81;;;19.91;50.80
20160;BME280;50187;50.492;12.134;2023-10-08T08:35:59;98366.88;;;19.92;50.58
20160;BME280;50187;50.492;12.134;2023-10-08T08:38:46;98382.22;;;19.91;50.79
20160;BME280;50187;50.492;12.134;2023-10-08T08:41:32;98384.22;;;19.89;50.52
20160;BME280;50187;50.492;12.134;2023-10-08T08:44:22;98378.53;;;19.82;50.24
20160;BME280;50187;50.492;12.134;2023-10-08T08:47:09;98401.56;;;19.86;50.56
20160;BME280;50187;50.492;12.134;2023-10-08T08:49:59;98407.94;;;19.85;50.47
20160;BME280;50187;50.492;12.134;2023-10-08T08:52:53;98416.31;;;19.82;50.51
20160;BME280;50187;50.492;12.134;2023-10-08T08:55:38;98419.91;;;19.83;50.35
20160;BME280;50187;50.492;12.134;2023-10-08T08:58:24;98437.91;;;19.82;50.56
20160;BME280;50187;50.492;12.134;2023-10-08T09:01:12;98439.78;;;19.82;50.47
20160;BME280;50187;50.492;12.134;2023-10-08T09:04:00;98448.03;;;19.80;50.39
20160;BME280;50187;50.492;12.134;2023-10-08T09:06:50;98462.59;;;19.78;50.44
20160;BME280;50187;50.492;12.134;2023-10-08T09:09:36;98460.53;;;19.81;50.32
20160;BME280;50187;50.492;12.134;2023-10-08T09:12:32;98465.19;;;19.79;50.38
20160;BME280;50187;50.492;12.134;2023-10-08T09:15:20;98469.63;;;19.80;50.58
20160;BME280;50187;50.492;12.134;2023-10-08T09:18:07;98474.41;;;19.77;50.22
20160;BME280;50187;50.492;12.134;2023-10-08T09:20:54;98484.84;;;19.81;50.52
20160;BME280;50187;50.492;12.134;2023-10-08T09:23:44;98491.22;;;19.80;50.31
20160;BME280;50187;50.492;12.134;2023-10-08T09:26:32;98486.06;;;19.77;50.36
20160;BME280;50187;50.492;12.134;2023-10-08T09:29:17;98481.41;;;19.79;50.36
20160;BME280;50187;50.492;12.134;2023-10-08T09:32:04;98472.31;;;19.80;50.37
20160;BME280;50187;50.492;12.134;2023-10-08T09:34:55;98500.31;;;19.79;50.19
20160;BME280;50187;50.492;12.134;2023-10-08T09:37:40;98517.59;;;19.77;49.96
20160;BME280;50187;50.492;12.134;2023-10-08T09:40:26;98547.28;;;19.77;50.02
20160;BME280;50187;50.492;12.134;2023-10-08T09:43:11;98523.72;;;19.79;50.19
20160;BME280;50187;50.492;12.134;2023-10-08T09:46:17;98508.41;;;19.79;50.30
20160;BME280;50187;50.492;12.134;2023-10-08T09:49:04;98495.56;;;19.71;50.61
20160;BME280;50187;50.492;12.134;2023-10-08T09:51:54;98489.00;;;19.74;50.45
20160;BME280;50187;50.492;12.134;2023-10-08T09:54:44;98506.84;;;19.86;50.95
20160;BME280;50187;50.492;12.134;2023-10-08T09:57:32;98511.81;;;19.91;51.23
20160;BME280;50187;50.492;12.134;2023-10-08T10:00:18;98506.19;;;19.94;50.62
20160;BME280;50187;50.492;12.134;2023-10-08T10:03:17;98504.03;;;19.98;50.25
20160;BME280;50187;50.492;12.134;2023-10-08T10:06:04;98504.78;;;20.00;50.13
20160;BME280;50187;50.492;12.134;2023-10-08T10:08:56;98508.03;;;20.03;50.26
20160;BME280;50187;50.492;12.134;2023-10-08T10:11:49;98505.34;;;20.03;50.00
20160;BME280;50187;50.492;12.134;2023-10-08T10:14:42;98504.50;;;20.03;50.05
20160;BME280;50187;50.492;12.134;2023-10-08T10:17:28;98506.22;;;20.04;50.12
20160;BME280;50187;50.492;12.134;2023-10-08T10:20:31;98513.03;;;20.08;50.25
20160;BME280;50187;50.492;12.134;2023-10-08T10:23:44;98532.06;;;20.06;50.09
20160;BME280;50187;50.492;12.134;2023-10-08T10:26:35;98522.56;;;20.02;50.14
20160;BME280;50187;50.492;12.134;2023-10-08T10:29:25;98537.22;;;20.10;49.96
20160;BME280;50187;50.492;12.134;2023-10-08T10:32:12;98557.94;;;20.09;49.82
20160;BME280;50187;50.492;12.134;2023-10-08T10:34:59;98545.44;;;20.08;49.83
20160;BME280;50187;50.492;12.134;2023-10-08T10:37:48;98559.53;;;20.12;50.26
20160;BME280;50187;50.492;12.134;2023-10-08T10:40:38;98557.56;;;20.14;49.85
20160;BME280;50187;50.492;12.134;2023-10-08T10:43:28;98555.97;;;20.11;50.45
20160;BME280;50187;50.492;12.134;2023-10-08T10:46:19;98558.41;;;20.14;49.94
20160;BME280;50187;50.492;12.134;2023-10-08T10:49:21;98557.56;;;20.14;50.04
20160;BME280;50187;50.492;12.134;2023-10-08T10:52:07;98562.22;;;20.12;49.59
20160;BME280;50187;50.492;12.134;2023-10-08T10:54:53;98562.78;;;20.05;49.59
20160;BME280;50187;50.492;12.134;2023-10-08T11:00:42;98565.63;;;20.04;49.31
20160;BME280;50187;50.492;12.134;2023-10-08T11:03:27;98563.16;;;20.01;49.64
20160;BME280;50187;50.492;12.134;2023-10-08T11:06:15;98573.00;;;20.02;49.59
20160;BME280;50187;50.492;12.134;2023-10-08T11:09:07;98584.78;;;20.01;49.41
20160;BME280;50187;50.492;12.134;2023-10-08T11:11:59;98584.06;;;19.99;49.53
20160;BME280;50187;50.492;12.134;2023-10-08T11:14:47;98582.34;;;19.98;49.36
20160;BME280;50187;50.492;12.134;2023-10-08T11:17:33;98585.06;;;19.98;49.64
20160;BME280;50187;50.492;12.134;2023-10-08T11:20:26;98587.91;;;19.96;49.61
20160;BME280;50187;50.492;12.134;2023-10-08T11:23:34;98592.31;;;19.97;49.46
20160;BME280;50187;50.492;12.134;2023-10-08T11:26:24;98587.19;;;19.94;49.33
20160;BME280;50187;50.492;12.134;2023-10-08T11:29:20;98582.63;;;19.95;49.36
20160;BME280;50187;50.492;12.134;2023-10-08T11:32:10;98587.19;;;19.94;49.30
20160;BME280;50187;50.492;12.134;2023-10-08T11:35:01;98587.34;;;19.93;49.22
20160;BME280;50187;50.492;12.134;2023-10-08T11:38:00;98572.38;;;19.88;49.46
20160;BME280;50187;50.492;12.134;2023-10-08T11:40:48;98578.22;;;19.94;49.54
20160;BME280;50187;50.492;12.134;2023-10-08T11:43:41;98574.66;;;19.93;49.30
20160;BME280;50187;50.492;12.134;2023-10-08T11:46:30;98572.94;;;19.92;49.47
20160;BME280;50187;50.492;12.134;2023-10-08T11:49:23;98574.66;;;19.93;49.47
20160;BME280;50187;50.492;12.134;2023-10-08T11:52:10;98551.03;;;19.85;49.15
20160;BME280;50187;50.492;12.134;2023-10-08T11:54:56;98547.81;;;19.92;49.36
20160;BME280;50187;50.492;12.134;2023-10-08T11:57:41;98548.78;;;19.90;49.39
20160;BME280;50187;50.492;12.134;2023-10-08T12:00:30;98545.09;;;19.92;49.38
20160;BME280;50187;50.492;12.134;2023-10-08T12:03:17;98540.00;;;19.88;49.21
20160;BME280;50187;50.492;12.134;2023-10-08T12:06:05;98540.56;;;19.92;49.43
20160;BME280;50187;50.492;12.134;2023-10-08T12:08:51;98552.47;;;19.89;49.33
20160;BME280;50187;50.492;12.134;2023-10-08T12:11:38;98535.16;;;19.92;49.07
20160;BME280;50187;50.492;12.134;2023-10-08T12:14:24;98537.28;;;19.88;49.33
20160;BME280;50187;50.492;12.134;2023-10-08T12:17:15;98549.63;;;19.91;49.51
20160;BME280;50187;50.492;12.134;2023-10-08T12:20:02;98559.59;;;19.90;49.33
20160;BME280;50187;50.492;12.134;2023-10-08T12:22:57;98559.59;;;19.90;49.63
20160;BME280;50187;50.492;12.134;2023-10-08T12:25:45;98560.44;;;19.91;49.62
20160;BME280;50187;50.492;12.134;2023-10-08T12:28:38;98564.28;;;19.88;49.34
20160;BME280;50187;50.492;12.134;2023-10-08T12:31:23;98572.38;;;19.88;49.38
20160;BME280;50187;50.492;12.134;2023-10-08T12:34:09;98574.94;;;19.90;49.39
20160;BME280;50187;50.492;12.134;2023-10-08T12:36:57;98592.28;;;19.87;49.28
20160;BME280;50187;50.492;12.134;2023-10-08T12:39:42;98574.94;;;19.90;49.46
20160;BME280;50187;50.492;12.134;2023-10-08T12:42:45;98568.69;;;19.89;49.43
20160;BME280;50187;50.492;12.134;2023-10-08T12:45:30;98565.00;;;19.90;49.50
20160;BME280;50187;50.492;12.134;2023-10-08T12:48:16;98538.97;;;19.89;49.41
20160;BME280;50187;50.492;12.134;2023-10-08T12:51:01;98540.84;;;19.89;49.44
20160;BME280;50187;50.492;12.134;2023-10-08T12:53:53;98549.78;;;19.89;49.17
20160;BME280;50187;50.492;12.134;2023-10-08T12:56:52;98557.88;;;19.89;49.29
20160;BME280;50187;50.492;12.134;2023-10-08T12:59:40;98555.31;;;19.88;49.18
20160;BME280;50187;50.492;12.134;2023-10-08T13:02:29;98553.50;;;19.88;49.17
20160;BME280;50187;50.492;12.134;2023-10-08T13:05:15;98550.19;;;19.85;49.54
20160;BME280;50187;50.492;12.134;2023-10-08T13:08:03;98559.88;;;19.87;49.57
20160;BME280;50187;50.492;12.134;2023-10-08T13:10:48;98552.91;;;19.85;49.35
20160;BME280;50187;50.492;12.134;2023-10-08T13:13:34;98550.78;;;19.88;49.29
20160;BME280;50187;50.492;12.134;2023-10-08T13:16:20;98540.56;;;19.92;49.27
20160;BME280;50187;50.492;12.134;2023-10-08T13:19:08;98547.97;;;20.00;49.04
20160;BME280;50187;50.492;12.134;2023-10-08T13:21:54;98531.22;;;20.06;48.98
20160;BME280;50187;50.492;12.134;2023-10-08T13:24:39;98528.97;;;20.11;49.09
20160;BME280;50187;50.492;12.134;2023-10-08T13:27:26;98532.38;;;20.13;48.69
20160;BME280;50187;50.492;12.134;2023-10-08T13:30:12;98532.22;;;20.15;48.85
20160;BME280;50187;50.492;12.134;2023-10-08T13:32:58;98544.16;;;20.12;48.73
20160;BME280;50187;50.492;12.134;2023-10-08T13:35:45;98544.88;;;20.14;48.82
20160;BME280;50187;50.492;12.134;2023-10-08T13:38:31;98544.47;;;20.19;48.63
20160;BME280;50187;50.492;12.134;2023-10-08T13:41:16;98537.63;;;20.15;48.94
20160;BME280;50187;50.492;12.134;2023-10-08T13:44:04;98536.63;;;20.16;48.87
20160;BME280;50187;50.492;12.134;2023-10-08T13:46:50;98531.53;;;20.13;48.42
20160;BME280;50187;50.492;12.134;2023-10-08T13:49:36;98536.63;;;20.16;48.71
20160;BME280;50187;50.492;12.134;2023-10-08T13:52:21;98521.56;;;20.13;48.64
20160;BME280;50187;50.492;12.134;2023-10-08T13:55:11;98521.56;;;20.13;48.89
20160;BME280;50187;50.492;12.134;2023-10-08T13:57:59;98521.56;;;20.13;48.70
20160;BME280;50187;50.492;12.134;2023-10-08T14:00:45;98526.97;;;20.13;48.90
20160;BME280;50187;50.492;12.134;2023-10-08T14:03:33;98522.44;;;20.14;48.67
20160;BME280;50187;50.492;12.134;2023-10-08T14:06:22;98531.53;;;20.13;48.88
20160;BME280;50187;50.492;12.134;2023-10-08T14:09:08;98521.97;;;20.08;48.80
20160;BME280;50187;50.492;12.134;2023-10-08T14:11:57;98535.34;;;20.10;48.74
20160;BME280;50187;50.492;12.134;2023-10-08T14:14:43;98543.59;;;20.08;48.61
20160;BME280;50187;50.492;12.134;2023-10-08T14:17:33;98540.06;;;20.08;48.60
20160;BME280;50187;50.492;12.134;2023-10-08T14:20:28;98535.50;;;20.08;48.63
20160;BME280;50187;50.492;12.134;2023-10-08T14:23:17;98526.78;;;20.05;48.74
20160;BME280;50187;50.492;12.134;2023-10-08T14:26:02;98536.63;;;20.06;48.62
20160;BME280;50187;50.492;12.134;2023-10-08T14:28:49;98524.97;;;20.05;48.78
20160;BME280;50187;50.492;12.134;2023-10-08T14:31:43;98515.28;;;20.03;48.54
20160;BME280;50187;50.492;12.134;2023-10-08T14:34:36;98506.22;;;20.04;48.83
20160;BME280;50187;50.492;12.134;2023-10-08T14:37:40;98504.50;;;20.03;48.73
20160;BME280;50187;50.492;12.134;2023-10-08T14:40:44;98506.34;;;20.02;48.57
20160;BME280;50187;50.492;12.134;2023-10-08T14:43:48;98508.16;;;20.02;48.78
20160;BME280;50187;50.492;12.134;2023-10-08T14:46:32;98498.34;;;20.01;48.77
20160;BME280;50187;50.492;12.134;2023-10-08T14:49:20;98498.34;;;20.01;48.51
20160;BME280;50187;50.492;12.134;2023-10-08T14:52:07;98494.25;;;19.97;48.58
20160;BME280;50187;50.492;12.134;2023-10-08T14:54:52;98505.75;;;19.99;48.92